This is the latest recevied weather packets stored in our database for station/object VK3PBR-10. If no packets are shown the sender has not sent any weather packets the latest 10 day(s).
| Time | Temp. | Humidity | Pressure | Rain* | Wind** | Luminosity | Snow |
|---|---|---|---|---|---|---|---|
| 1787967129 | 20.56° C | 41% | 1036.9 hPa | - | - | - | - |
| 1787966228 | 20° C | 43% | 1037 hPa | - | - | - | - |
| 1787965328 | 19.44° C | 44% | 1037 hPa | - | - | - | - |
| 1787964428 | 19.44° C | 44% | 1037 hPa | - | - | - | - |
| 1787963528 | 19.44° C | 44% | 1036.8 hPa | - | - | - | - |
| 1787962627 | 18.89° C | 47% | 1036.8 hPa | - | - | - | - |
| 1787961727 | 18.33° C | 47% | 1036.5 hPa | - | - | - | - |
| 1787960827 | 21.11° C | 46% | 1036.4 hPa | - | - | - | - |
| 1787959927 | 20.56° C | 46% | 1036.5 hPa | - | - | - | - |
| 1787959027 | 18.89° C | 52% | 1036.8 hPa | - | - | - | - |
| 1787958127 | 18.33° C | 55% | 1036.9 hPa | - | - | - | - |
| 1787957226 | 17.22° C | 58% | 1036.8 hPa | - | - | - | - |
| 1787956326 | 16.67° C | 59% | 1036.7 hPa | - | - | - | - |
| 1787955426 | 15.56° C | 62% | 1036.6 hPa | - | - | - | - |
| 1787954526 | 15° C | 64% | 1036.5 hPa | - | - | - | - |
| 1787953626 | 14.44° C | 65% | 1036.2 hPa | - | - | - | - |
| 1787952726 | 13.89° C | 66% | 1036 hPa | - | - | - | - |
| 1787951825 | 13.33° C | 67% | 1035.9 hPa | - | - | - | - |
| 1787950925 | 12.78° C | 68% | 1035.7 hPa | - | - | - | - |
| 1787950025 | 12.78° C | 68% | 1035.5 hPa | - | - | - | - |
| 1787949124 | 12.78° C | 68% | 1035.4 hPa | - | - | - | - |
| 1787948224 | 12.78° C | 68% | 1035.4 hPa | - | - | - | - |
| 1787947323 | 12.78° C | 68% | 1035.3 hPa | - | - | - | - |
| 1787946423 | 12.78° C | 68% | 1035.2 hPa | - | - | - | - |
| 1787945523 | 12.78° C | 68% | 1035.1 hPa | - | - | - | - |
* Rain since midnight (hover to see other rain measurements)
** Current wind speed in m/s (hover to see current wind gust speed)